createdAt,value
2019-06-20T00:02:06.338Z,100291.44
2019-06-20T00:06:59.855Z,100285.04
2019-06-20T00:11:53.775Z,100291.94
2019-06-20T00:16:47.451Z,100302.63
2019-06-20T00:21:40.876Z,100306.84
2019-06-20T00:26:34.356Z,100310.08
2019-06-20T00:31:27.886Z,100302.75
2019-06-20T00:36:21.289Z,100314.84
2019-06-20T00:41:14.944Z,100325.58
2019-06-20T00:46:08.474Z,100324.30
2019-06-20T00:51:03.057Z,100328.37
2019-06-20T00:55:56.396Z,100341.58
2019-06-20T01:00:49.876Z,100346.59
2019-06-20T01:05:43.420Z,100348.53
2019-06-20T01:10:36.910Z,100356.81
2019-06-20T01:15:30.459Z,100361.25
2019-06-20T01:20:25.752Z,100372.78
2019-06-20T01:25:38.545Z,100371.28
2019-06-20T01:30:32.017Z,100381.53
2019-06-20T01:35:25.566Z,100379.48
2019-06-20T01:40:19.111Z,100381.54
2019-06-20T01:45:13.415Z,100394.77
2019-06-20T01:50:07.281Z,100397.97
2019-06-20T01:55:00.930Z,100394.74
2019-06-20T01:59:56.031Z,100396.82
2019-06-20T02:04:49.574Z,100396.55
2019-06-20T02:09:43.077Z,100400.03
2019-06-20T02:14:36.341Z,100402.09
2019-06-20T02:19:29.789Z,100406.13
2019-06-20T02:24:25.105Z,100410.01
2019-06-20T02:29:18.521Z,100402.71
2019-06-20T02:34:12.097Z,100407.23
2019-06-20T02:39:07.200Z,100414.28
2019-06-20T02:44:02.675Z,100414.60
2019-06-20T02:48:56.224Z,100428.52
2019-06-20T02:53:49.723Z,100429.27
2019-06-20T02:58:45.521Z,100422.65
2019-06-20T03:03:38.863Z,100419.09
2019-06-20T03:08:34.148Z,100422.45
2019-06-20T03:13:27.613Z,100430.25
2019-06-20T03:18:21.133Z,100436.95
2019-06-20T03:23:14.651Z,100436.87
2019-06-20T03:28:08.248Z,100441.36
2019-06-20T03:33:01.671Z,100453.30
2019-06-20T03:37:55.201Z,100465.46
2019-06-20T03:42:48.637Z,100473.50
2019-06-20T03:47:42.085Z,100480.06
2019-06-20T03:52:35.693Z,100483.19
2019-06-20T03:57:29.278Z,100484.01
2019-06-20T04:02:22.726Z,100485.30
2019-06-20T04:07:17.308Z,100487.46
2019-06-20T04:12:10.815Z,100493.33
2019-06-20T04:17:04.528Z,100497.26
2019-06-20T04:21:58.110Z,100496.70
2019-06-20T04:26:51.661Z,100503.16
2019-06-20T04:31:45.252Z,100507.56
2019-06-20T04:36:38.928Z,100511.06
2019-06-20T04:41:32.407Z,100519.22
2019-06-20T04:46:34.745Z,100514.83
2019-06-20T04:51:28.328Z,100516.44
2019-06-20T04:56:21.863Z,100508.48
2019-06-20T05:01:15.358Z,100518.63
2019-06-20T05:06:09.975Z,100519.86
2019-06-20T05:11:03.489Z,100519.30
2019-06-20T05:15:57.216Z,100520.92
2019-06-20T05:20:50.815Z,100517.11
2019-06-20T05:25:44.389Z,100519.73
2019-06-20T05:30:37.845Z,100524.38
2019-06-20T05:35:31.437Z,100530.94
2019-06-20T05:40:25.442Z,100532.61
2019-06-20T05:45:19.023Z,100537.81
2019-06-20T05:50:13.314Z,100538.18
2019-06-20T05:55:07.361Z,100535.98
2019-06-20T06:00:00.970Z,100533.20
2019-06-20T06:04:54.671Z,100542.16
2019-06-20T06:09:48.153Z,100549.01
2019-06-20T06:14:41.863Z,100550.16
2019-06-20T06:19:35.423Z,100555.53
2019-06-20T06:24:29.094Z,100552.86
2019-06-20T06:29:22.673Z,100562.42
2019-06-20T06:34:16.182Z,100567.88
2019-06-20T06:39:10.452Z,100572.56
2019-06-20T06:44:04.323Z,100569.97
2019-06-20T06:48:57.822Z,100573.13
2019-06-20T06:53:52.735Z,100573.22
2019-06-20T06:58:46.321Z,100552.52
2019-06-20T07:03:39.715Z,100549.05
2019-06-20T07:08:33.210Z,100544.44
2019-06-20T07:13:26.692Z,100560.82
2019-06-20T07:18:20.165Z,100563.46
2019-06-20T07:23:13.470Z,100567.39
2019-06-20T07:28:06.842Z,100564.32
2019-06-20T07:33:00.293Z,100574.41
2019-06-20T07:37:53.962Z,100561.05
2019-06-20T07:42:48.403Z,100546.80
2019-06-20T07:47:42.035Z,100545.14
2019-06-20T07:52:35.415Z,100542.56
2019-06-20T07:57:28.907Z,100551.36
2019-06-20T08:02:22.313Z,100551.33
2019-06-20T08:07:15.613Z,100541.80
2019-06-20T08:12:09.028Z,100557.02
2019-06-20T08:17:02.570Z,100569.73
2019-06-20T08:21:56.307Z,100567.80
2019-06-20T08:26:49.712Z,100565.38
2019-06-20T08:31:43.065Z,100561.08
2019-06-20T08:36:36.096Z,100568.34
2019-06-20T08:41:29.276Z,100571.79
2019-06-20T08:46:22.730Z,100574.28
2019-06-20T08:51:15.870Z,100577.38
2019-06-20T08:56:08.879Z,100574.45
2019-06-20T09:05:58.222Z,100589.39
2019-06-20T09:10:54.140Z,100587.70
2019-06-20T09:15:47.061Z,100573.81
2019-06-20T09:20:40.469Z,100570.89
2019-06-20T09:25:33.757Z,100587.16
2019-06-20T09:30:26.968Z,100586.07
2019-06-20T09:35:20.335Z,100586.20
2019-06-20T09:40:13.972Z,100585.74
2019-06-20T09:45:07.867Z,100581.58
2019-06-20T09:50:01.369Z,100580.38
2019-06-20T09:54:56.124Z,100578.09
2019-06-20T10:00:02.838Z,100566.91
2019-06-20T10:04:44.168Z,100577.30
2019-06-20T10:09:37.373Z,100580.03
2019-06-20T10:14:30.612Z,100583.86
2019-06-20T10:19:25.831Z,100574.14
2019-06-20T10:24:22.049Z,100578.83
2019-06-20T10:29:15.328Z,100574.84
2019-06-20T10:34:08.950Z,100573.31
2019-06-20T10:39:03.363Z,100579.72
2019-06-20T10:43:56.830Z,100578.31
2019-06-20T10:48:52.717Z,100572.07
2019-06-20T10:53:47.144Z,100583.34
2019-06-20T10:58:42.007Z,100578.21
2019-06-20T11:03:36.328Z,100582.91
2019-06-20T11:08:29.665Z,100586.57
2019-06-20T11:13:23.260Z,100575.80
2019-06-20T11:18:16.653Z,100582.89
2019-06-20T11:23:10.019Z,100568.02
2019-06-20T11:28:03.675Z,100568.66
2019-06-20T11:32:57.248Z,100567.00
2019-06-20T11:37:50.874Z,100564.89
2019-06-20T11:42:44.622Z,100560.13
2019-06-20T11:47:38.356Z,100557.55
2019-06-20T11:52:35.347Z,100560.73
2019-06-20T11:57:28.770Z,100549.88
2019-06-20T12:02:22.940Z,100552.13
2019-06-20T12:07:16.559Z,100549.50
2019-06-20T12:12:10.196Z,100548.11
2019-06-20T12:17:03.868Z,100545.50
2019-06-20T12:21:57.670Z,100547.68
2019-06-20T12:26:51.425Z,100546.19
2019-06-20T12:31:45.877Z,100549.70
2019-06-20T12:36:40.827Z,100546.47
2019-06-20T12:41:34.827Z,100552.59
2019-06-20T12:46:28.434Z,100558.73
2019-06-20T12:51:22.145Z,100568.14
2019-06-20T12:56:15.637Z,100577.83
2019-06-20T13:01:09.212Z,100586.06
2019-06-20T13:06:02.946Z,100602.00
2019-06-20T13:10:57.353Z,100617.77
2019-06-20T13:15:50.674Z,100626.52
2019-06-20T13:20:44.324Z,100633.63
2019-06-20T13:25:39.176Z,100637.67
2019-06-20T13:30:33.326Z,100646.48
2019-06-20T13:35:28.342Z,100645.81
2019-06-20T13:40:22.020Z,100645.36
2019-06-20T13:45:20.300Z,100645.45
2019-06-20T13:50:13.853Z,100645.16
2019-06-20T13:55:07.650Z,100651.56
2019-06-20T14:00:01.729Z,100646.02
2019-06-20T14:04:55.511Z,100653.11
2019-06-20T14:09:51.129Z,100657.37
2019-06-20T14:14:45.927Z,100653.56
2019-06-20T14:19:39.335Z,100658.75
2019-06-20T14:24:33.038Z,100660.01
2019-06-20T14:29:26.518Z,100659.39
2019-06-20T14:34:20.006Z,100679.31
2019-06-20T14:39:13.368Z,100681.26
2019-06-20T14:44:06.978Z,100684.81
2019-06-20T14:49:00.313Z,100675.72
2019-06-20T14:53:54.519Z,100679.09
2019-06-20T14:58:48.719Z,100686.82
2019-06-20T15:03:42.544Z,100694.66
2019-06-20T15:08:36.098Z,100691.03
2019-06-20T15:13:29.591Z,100685.67
2019-06-20T15:18:24.808Z,100686.24
2019-06-20T15:23:18.448Z,100681.34
2019-06-20T15:28:11.952Z,100679.73
2019-06-20T15:33:10.286Z,100685.53
2019-06-20T15:38:01.249Z,100672.70
2019-06-20T15:42:55.423Z,100671.16
2019-06-20T15:47:50.398Z,100664.83
2019-06-20T15:52:43.845Z,100667.37
2019-06-20T15:57:37.576Z,100668.95
2019-06-20T16:02:31.150Z,100669.50
2019-06-20T16:07:24.821Z,100666.00
2019-06-20T16:12:19.119Z,100661.16
2019-06-20T16:17:12.597Z,100668.71
2019-06-20T16:22:06.142Z,100673.23
2019-06-20T16:26:59.884Z,100675.75
2019-06-20T16:31:53.365Z,100681.03
2019-06-20T16:36:46.834Z,100684.39
2019-06-20T16:41:40.409Z,100679.59
2019-06-20T16:46:35.900Z,100679.70
2019-06-20T16:51:29.661Z,100679.44
2019-06-20T16:56:23.087Z,100687.70
2019-06-20T17:01:16.908Z,100696.31
2019-06-20T17:06:10.468Z,100696.06
2019-06-20T17:11:04.330Z,100700.09
2019-06-20T17:15:57.741Z,100694.90
2019-06-20T17:20:51.093Z,100701.06
2019-06-20T17:25:44.489Z,100706.89
2019-06-20T17:30:39.206Z,100704.72
2019-06-20T17:35:32.774Z,100711.52
2019-06-20T17:40:26.788Z,100721.23
2019-06-20T17:45:23.032Z,100724.18
2019-06-20T17:50:16.972Z,100726.11
2019-06-20T17:55:13.550Z,100729.00
2019-06-20T18:00:07.962Z,100737.49
2019-06-20T18:05:02.886Z,100738.33
2019-06-20T18:09:56.451Z,100747.66
2019-06-20T18:14:49.953Z,100743.34
2019-06-20T18:19:43.571Z,100740.45
2019-06-20T18:24:37.421Z,100743.69
2019-06-20T18:29:31.013Z,100747.05
2019-06-20T18:34:29.977Z,100747.68
2019-06-20T18:39:20.300Z,100754.53
2019-06-20T18:44:15.340Z,100753.83
2019-06-20T18:49:08.768Z,100760.80
2019-06-20T18:54:02.478Z,100763.93
2019-06-20T18:58:55.977Z,100771.70
2019-06-20T19:03:49.472Z,100796.17
2019-06-20T19:08:42.906Z,100813.08
2019-06-20T19:13:36.265Z,100821.88
2019-06-20T19:18:29.811Z,100831.89
2019-06-20T19:23:23.615Z,100848.84
2019-06-20T19:28:17.255Z,100853.64
2019-06-20T19:33:11.928Z,100869.51
2019-06-20T19:38:06.427Z,100866.77
2019-06-20T19:43:00.047Z,100878.41
2019-06-20T19:47:53.628Z,100883.99
2019-06-20T19:52:47.135Z,100885.97
2019-06-20T19:57:41.687Z,100892.06
2019-06-20T20:02:35.148Z,100900.25
2019-06-20T20:07:28.822Z,100911.22
2019-06-20T20:12:22.378Z,100919.43
2019-06-20T20:17:15.968Z,100919.81
2019-06-20T20:22:09.668Z,100913.56
2019-06-20T20:27:03.121Z,100918.55
2019-06-20T20:31:56.681Z,100916.34
2019-06-20T20:36:50.151Z,100922.38
2019-06-20T20:41:43.690Z,100926.66
2019-06-20T20:46:37.229Z,100927.91
2019-06-20T20:51:30.935Z,100927.61
2019-06-20T20:56:24.821Z,100927.95
2019-06-20T21:01:29.358Z,100936.42
2019-06-20T21:06:25.166Z,100941.22
2019-06-20T21:11:18.689Z,100952.56
2019-06-20T21:16:12.317Z,100951.65
2019-06-20T21:21:05.908Z,100962.73
2019-06-20T21:25:59.635Z,100960.62
2019-06-20T21:30:53.126Z,100970.76
2019-06-20T21:35:46.695Z,100975.11
2019-06-20T21:40:40.185Z,100976.29
2019-06-20T21:45:33.663Z,100974.67
2019-06-20T21:50:27.312Z,100972.23
2019-06-20T21:55:22.087Z,100981.53
2019-06-20T22:00:22.920Z,100991.10
2019-06-20T22:05:16.446Z,100985.42
2019-06-20T22:10:10.255Z,100994.81
2019-06-20T22:15:04.383Z,101005.69
2019-06-20T22:19:58.050Z,101010.56
2019-06-20T22:24:51.717Z,101002.73
2019-06-20T22:29:45.092Z,101003.41
2019-06-20T22:34:38.594Z,101001.91
2019-06-20T22:39:32.366Z,101008.12
2019-06-20T22:44:25.809Z,101013.09
2019-06-20T22:49:19.426Z,101007.11
2019-06-20T22:54:12.905Z,101007.02
2019-06-20T22:59:06.617Z,101016.53
2019-06-20T23:03:59.970Z,101026.17
2019-06-20T23:08:53.574Z,101027.29
2019-06-20T23:13:47.272Z,101031.77
2019-06-20T23:18:40.920Z,101031.48
2019-06-20T23:23:34.416Z,101041.50
2019-06-20T23:28:28.033Z,101042.91
2019-06-20T23:33:21.497Z,101042.70
2019-06-20T23:38:14.909Z,101040.77
2019-06-20T23:43:08.433Z,101050.29
2019-06-20T23:48:01.798Z,101059.91
2019-06-20T23:53:00.745Z,101053.63
2019-06-20T23:57:55.820Z,101047.56
